createdAt,value
2023-03-11T00:00:47.500Z,4.83
2023-03-11T00:03:17.948Z,4.97
2023-03-11T00:05:47.126Z,4.20
2023-03-11T00:08:18.783Z,4.40
2023-03-11T00:10:48.972Z,4.93
2023-03-11T00:13:17.324Z,4.07
2023-03-11T00:15:48.897Z,3.93
2023-03-11T00:18:16.891Z,4.40
2023-03-11T00:20:46.474Z,4.40
2023-03-11T00:23:15.584Z,5.10
2023-03-11T00:25:46.665Z,4.83
2023-03-11T00:28:16.241Z,4.30
2023-03-11T00:30:45.411Z,3.97
2023-03-11T00:33:15.669Z,3.77
2023-03-11T00:35:44.092Z,4.63
2023-03-11T00:38:15.676Z,3.60
2023-03-11T00:40:44.614Z,4.27
2023-03-11T00:43:12.224Z,3.53
2023-03-11T00:45:40.132Z,3.90
2023-03-11T00:48:08.689Z,3.27
2023-03-11T00:50:37.669Z,3.47
2023-03-11T00:53:05.789Z,3.63
2023-03-11T00:55:35.502Z,3.73
2023-03-11T00:58:06.109Z,3.47
2023-03-11T01:00:34.332Z,3.67
2023-03-11T01:03:01.981Z,3.77
2023-03-11T01:05:32.431Z,3.63
2023-03-11T01:08:00.132Z,3.27
2023-03-11T01:10:29.232Z,3.83
2023-03-11T01:12:56.580Z,3.70
2023-03-11T01:15:32.396Z,3.63
2023-03-11T01:18:00.000Z,3.53
2023-03-11T01:20:27.429Z,3.10
2023-03-11T01:22:54.524Z,3.47
2023-03-11T01:25:24.141Z,3.30
2023-03-11T01:27:51.853Z,3.00
2023-03-11T01:30:24.053Z,4.13
2023-03-11T01:32:53.522Z,3.50
2023-03-11T01:35:23.404Z,3.47
2023-03-11T01:37:51.101Z,3.40
2023-03-11T01:40:44.204Z,3.60
2023-03-11T01:43:45.360Z,3.63
2023-03-11T01:46:14.935Z,3.13
2023-03-11T01:48:50.550Z,4.07
2023-03-11T01:51:34.072Z,4.20
2023-03-11T01:54:06.887Z,3.70
2023-03-11T01:56:34.711Z,3.17
2023-03-11T01:59:02.108Z,3.70
2023-03-11T02:01:29.861Z,3.67
2023-03-11T02:03:58.644Z,3.53
2023-03-11T02:06:26.552Z,3.83
2023-03-11T02:08:55.240Z,3.30
2023-03-11T02:11:27.560Z,3.60
2023-03-11T02:13:59.819Z,3.33
2023-03-11T02:16:27.363Z,3.17
2023-03-11T02:18:54.641Z,3.13
2023-03-11T02:21:30.600Z,3.87
2023-03-11T02:24:22.530Z,3.23
2023-03-11T02:27:07.532Z,3.53
2023-03-11T02:29:36.090Z,3.07
2023-03-11T02:32:08.900Z,3.40
2023-03-11T02:34:39.637Z,3.40
2023-03-11T02:37:10.973Z,3.93
2023-03-11T02:39:46.423Z,3.90
2023-03-11T02:42:26.199Z,4.13
2023-03-11T02:45:09.656Z,3.93
2023-03-11T02:47:39.327Z,3.63
2023-03-11T02:50:10.047Z,3.67
2023-03-11T02:52:37.351Z,3.33
2023-03-11T02:55:05.729Z,3.83
2023-03-11T02:57:32.765Z,4.17
2023-03-11T03:00:03.238Z,4.30
2023-03-11T03:02:30.220Z,4.93
2023-03-11T03:04:57.362Z,4.70
2023-03-11T03:07:24.513Z,4.53
2023-03-11T03:09:51.579Z,4.70
2023-03-11T03:12:18.731Z,4.50
2023-03-11T03:14:45.767Z,4.23
2023-03-11T03:17:12.918Z,4.27
2023-03-11T03:19:40.184Z,4.37
2023-03-11T03:22:07.274Z,3.80
2023-03-11T03:24:34.449Z,4.80
2023-03-11T03:27:01.551Z,3.97
2023-03-11T03:29:28.820Z,4.60
2023-03-11T03:31:56.000Z,4.27
2023-03-11T03:34:23.094Z,4.57
2023-03-11T03:36:50.199Z,4.57
2023-03-11T03:39:19.787Z,4.77
2023-03-11T03:41:46.889Z,4.33
2023-03-11T03:44:14.785Z,4.40
2023-03-11T03:46:41.926Z,4.20
2023-03-11T03:49:09.165Z,3.73
2023-03-11T03:51:36.233Z,4.03
2023-03-11T03:54:04.600Z,4.10
2023-03-11T03:56:31.714Z,3.90
2023-03-11T03:58:58.861Z,4.30
2023-03-11T04:01:25.955Z,4.00
2023-03-11T04:03:54.145Z,4.10
2023-03-11T04:06:30.376Z,3.80
2023-03-11T04:08:57.823Z,4.07
2023-03-11T04:11:25.026Z,4.33
2023-03-11T04:13:52.459Z,3.77
2023-03-11T04:16:22.898Z,3.50
2023-03-11T04:18:50.582Z,3.33
2023-03-11T04:21:19.022Z,3.57
2023-03-11T04:23:46.514Z,3.37
2023-03-11T04:26:13.886Z,3.10
2023-03-11T04:28:44.618Z,3.73
2023-03-11T04:31:21.714Z,3.83
2023-03-11T04:33:59.168Z,3.27
2023-03-11T04:36:33.351Z,3.20
2023-03-11T04:39:28.984Z,3.57
2023-03-11T04:41:57.899Z,3.83
2023-03-11T04:44:25.561Z,4.60
2023-03-11T04:47:22.261Z,4.27
2023-03-11T04:57:25.830Z,3.60
2023-03-11T06:50:32.824Z,4.97
2023-03-11T06:53:13.871Z,5.67
2023-03-11T06:59:28.584Z,6.43
2023-03-11T07:08:05.156Z,6.20
2023-03-11T07:09:16.770Z,7.00
2023-03-11T07:12:09.762Z,5.67
2023-03-11T07:14:45.475Z,6.47
2023-03-11T07:17:23.985Z,5.13
2023-03-11T07:19:56.010Z,5.53
2023-03-11T07:25:55.569Z,6.00
2023-03-11T07:28:25.287Z,6.93
2023-03-11T07:30:54.353Z,6.30
2023-03-11T07:33:34.241Z,6.30
2023-03-11T07:36:14.078Z,7.03
2023-03-11T07:38:41.991Z,6.63
2023-03-11T07:41:14.289Z,6.20
2023-03-11T07:43:43.175Z,6.00
2023-03-11T07:46:16.598Z,6.30
2023-03-11T07:48:44.489Z,6.53
2023-03-11T07:51:15.522Z,7.20
2023-03-11T07:53:43.454Z,6.80
2023-03-11T07:56:12.882Z,6.40
2023-03-11T07:58:41.139Z,5.93
2023-03-11T08:01:16.353Z,5.70
2023-03-11T08:03:45.493Z,5.80
2023-03-11T08:06:18.779Z,4.93
2023-03-11T08:08:47.404Z,5.67
2023-03-11T08:11:16.047Z,5.90
2023-03-11T08:13:45.173Z,4.87
2023-03-11T08:16:19.624Z,4.57
2023-03-11T08:18:48.713Z,5.33
2023-03-11T08:21:23.345Z,4.03
2023-03-11T08:23:50.808Z,4.93
2023-03-11T08:26:21.646Z,4.53
2023-03-11T08:28:49.473Z,4.90
2023-03-11T08:31:20.372Z,4.47
2023-03-11T08:33:52.630Z,4.60
2023-03-11T08:36:21.169Z,4.30
2023-03-11T08:38:48.763Z,5.30
2023-03-11T08:41:16.184Z,5.60
2023-03-11T08:43:44.559Z,4.97
2023-03-11T08:46:36.652Z,5.00
2023-03-11T08:49:04.761Z,5.30
2023-03-11T08:51:34.339Z,4.80
2023-03-11T08:54:02.957Z,4.83
2023-03-11T08:56:30.496Z,5.60
2023-03-11T08:58:57.910Z,4.50
2023-03-11T09:01:25.829Z,4.50
2023-03-11T09:03:52.774Z,4.37
2023-03-11T09:06:19.971Z,4.70
2023-03-11T09:08:47.982Z,5.40
2023-03-11T09:11:16.610Z,4.60
2023-03-11T09:13:44.343Z,4.37
2023-03-11T09:16:20.910Z,4.60
2023-03-11T09:18:48.354Z,5.33
2023-03-11T09:21:15.365Z,5.17
2023-03-11T09:23:44.316Z,4.87
2023-03-11T09:26:12.505Z,4.47
2023-03-11T09:28:40.861Z,4.60
2023-03-11T09:31:08.281Z,4.80
2023-03-11T09:33:42.669Z,4.37
2023-03-11T09:36:15.688Z,4.00
2023-03-11T09:38:43.520Z,4.43
2023-03-11T09:41:59.000Z,3.63
2023-03-11T09:45:05.183Z,3.60
2023-03-11T09:48:24.242Z,3.20
2023-03-11T09:50:59.366Z,3.07
2023-03-11T09:53:35.088Z,2.10
2023-03-11T09:56:07.810Z,3.00
2023-03-11T09:58:50.607Z,2.50
2023-03-11T10:01:26.273Z,2.90
2023-03-11T10:03:57.888Z,3.40
2023-03-11T10:06:31.111Z,3.00
2023-03-11T10:09:25.510Z,2.57
2023-03-11T10:12:07.456Z,2.13
2023-03-11T10:15:03.841Z,2.43
2023-03-11T10:18:19.151Z,2.17
2023-03-11T10:21:10.151Z,1.70
2023-03-11T10:24:21.283Z,2.13
2023-03-11T10:26:58.066Z,2.37
2023-03-11T10:29:35.260Z,2.23
2023-03-11T10:32:06.681Z,2.00
2023-03-11T10:34:48.195Z,2.20
2023-03-11T10:37:29.082Z,2.20
2023-03-11T10:40:19.771Z,1.87
2023-03-11T10:42:47.549Z,2.23
2023-03-11T10:45:15.658Z,1.43
2023-03-11T10:47:42.876Z,1.80
2023-03-11T10:50:18.102Z,1.60
2023-03-11T10:53:10.769Z,1.60
2023-03-11T10:55:51.523Z,1.87
2023-03-11T10:58:30.425Z,1.80
2023-03-11T11:01:15.920Z,2.67
2023-03-11T11:03:46.323Z,1.90
2023-03-11T11:06:33.720Z,2.10
2023-03-11T11:09:23.664Z,1.73
2023-03-11T11:12:05.973Z,1.50
2023-03-11T11:14:51.305Z,2.00
2023-03-11T11:17:37.831Z,1.97
2023-03-11T11:20:13.276Z,2.43
2023-03-11T11:22:56.581Z,1.37
2023-03-11T11:25:35.834Z,1.27
2023-03-11T11:28:18.880Z,1.93
2023-03-11T11:30:58.932Z,1.67
2023-03-11T11:33:40.897Z,1.73
2023-03-11T11:36:16.612Z,1.97
2023-03-11T11:38:44.418Z,1.80
2023-03-11T11:41:17.651Z,1.70
2023-03-11T11:43:53.374Z,1.70
2023-03-11T11:46:30.199Z,2.03
2023-03-11T11:49:29.492Z,1.60
2023-03-11T11:52:18.617Z,1.90
2023-03-11T11:54:59.235Z,1.90
2023-03-11T11:57:26.278Z,1.50
2023-03-11T11:59:53.564Z,2.13
2023-03-11T12:03:02.680Z,2.30
2023-03-11T12:05:31.489Z,1.80
2023-03-11T12:08:43.197Z,2.20
2023-03-11T12:11:20.185Z,1.40
2023-03-11T12:14:11.794Z,2.07
2023-03-11T12:16:59.227Z,1.87
2023-03-11T12:19:50.001Z,2.10
2023-03-11T12:22:47.857Z,2.03
2023-03-11T12:25:27.445Z,2.00
2023-03-11T12:28:09.229Z,2.00
2023-03-11T12:30:43.951Z,1.90
2023-03-11T12:33:37.140Z,1.60
2023-03-11T12:36:06.160Z,1.67
2023-03-11T12:38:37.556Z,2.10
2023-03-11T12:41:43.109Z,2.33
2023-03-11T12:44:30.677Z,2.00
2023-03-11T12:47:15.739Z,1.70
2023-03-11T12:49:46.161Z,1.50
2023-03-11T12:52:15.590Z,1.87
2023-03-11T12:54:47.828Z,2.20
2023-03-11T12:57:17.865Z,2.00
2023-03-11T13:00:03.362Z,1.70
2023-03-11T13:03:32.777Z,1.63
2023-03-11T13:06:20.174Z,1.70
2023-03-11T13:08:57.096Z,1.30
2023-03-11T13:11:32.987Z,1.77
2023-03-11T13:14:14.915Z,1.70
2023-03-11T13:16:43.411Z,1.57
2023-03-11T13:19:32.125Z,1.50
2023-03-11T13:22:03.235Z,1.60
2023-03-11T13:24:30.126Z,1.60
2023-03-11T13:27:05.266Z,1.30
2023-03-11T13:29:52.015Z,1.70
2023-03-11T13:32:54.429Z,1.30
2023-03-11T13:36:09.192Z,1.50
2023-03-11T13:39:10.632Z,1.30
2023-03-11T13:41:41.877Z,1.30
2023-03-11T13:44:29.014Z,1.37
2023-03-11T13:47:09.974Z,1.30
2023-03-11T13:49:51.930Z,1.63
2023-03-11T13:52:37.047Z,1.63
2023-03-11T13:55:37.898Z,1.20
2023-03-11T13:58:20.940Z,1.47
2023-03-11T14:00:52.471Z,1.50
2023-03-11T14:03:22.292Z,1.43
2023-03-11T14:06:07.285Z,1.40
2023-03-11T14:08:37.096Z,1.57
2023-03-11T14:11:10.368Z,1.37
2023-03-11T14:13:46.058Z,1.20
2023-03-11T14:16:43.712Z,1.30
2023-03-11T14:19:16.096Z,1.50
2023-03-11T14:21:51.615Z,1.67
2023-03-11T14:24:25.449Z,1.80
2023-03-11T14:26:55.721Z,1.67
2023-03-11T14:29:43.345Z,1.33
2023-03-11T14:32:28.852Z,1.40
2023-03-11T14:34:56.938Z,1.70
2023-03-11T14:37:37.823Z,1.50
2023-03-11T14:40:27.331Z,1.63
2023-03-11T14:43:01.092Z,1.47
2023-03-11T14:45:34.129Z,1.43
2023-03-11T14:48:12.396Z,1.80
2023-03-11T14:50:39.450Z,1.70
2023-03-11T14:53:22.437Z,1.43
2023-03-11T14:55:52.013Z,1.30
2023-03-11T14:58:40.701Z,1.83
2023-03-11T15:01:26.786Z,1.50
2023-03-11T15:04:06.603Z,1.90
2023-03-11T15:06:35.250Z,2.30
2023-03-11T15:09:07.943Z,2.03
2023-03-11T15:12:07.413Z,2.40
2023-03-11T15:14:36.999Z,1.93
2023-03-11T15:17:13.314Z,1.60
2023-03-11T15:19:44.570Z,2.30
2023-03-11T15:22:38.992Z,3.10
2023-03-11T15:25:19.856Z,1.80
2023-03-11T15:27:47.036Z,2.07
2023-03-11T15:30:34.198Z,2.30
2023-03-11T15:33:01.308Z,2.00
2023-03-11T15:35:31.502Z,2.13
2023-03-11T15:38:26.312Z,2.07
2023-03-11T15:41:03.800Z,2.20
2023-03-11T15:43:43.739Z,2.00
2023-03-11T15:46:11.316Z,2.00
2023-03-11T15:48:38.397Z,2.20
2023-03-11T15:51:05.543Z,2.17
2023-03-11T15:53:32.490Z,2.10
2023-03-11T15:56:07.784Z,2.23
2023-03-11T15:58:37.912Z,3.37
2023-03-11T16:01:05.291Z,2.30
2023-03-11T16:03:32.355Z,1.90
2023-03-11T16:05:59.387Z,2.47
2023-03-11T16:08:26.383Z,2.63
2023-03-11T16:10:53.306Z,2.30
2023-03-11T16:13:20.326Z,2.10
2023-03-11T16:15:47.407Z,1.70
2023-03-11T16:18:14.769Z,2.27
2023-03-11T16:20:46.678Z,2.00
2023-03-11T16:23:27.653Z,1.60
2023-03-11T16:25:59.957Z,1.80
2023-03-11T16:28:27.261Z,2.40
2023-03-11T16:30:55.415Z,2.30
2023-03-11T16:33:22.449Z,2.60
2023-03-11T16:35:49.509Z,2.33
2023-03-11T16:38:19.341Z,2.10
2023-03-11T16:40:56.184Z,1.97
2023-03-11T16:43:23.227Z,1.77
2023-03-11T16:45:50.224Z,1.83
2023-03-11T16:48:17.243Z,2.13
2023-03-11T16:50:44.183Z,2.30
2023-03-11T16:53:11.217Z,1.93
2023-03-11T16:55:38.197Z,1.80
2023-03-11T16:58:05.132Z,1.80
2023-03-11T17:00:32.110Z,1.97
2023-03-11T17:02:59.105Z,2.00
2023-03-11T17:05:26.180Z,1.97
2023-03-11T17:08:00.046Z,1.53
2023-03-11T17:10:28.727Z,1.63
2023-03-11T17:12:55.944Z,1.73
2023-03-11T17:15:22.923Z,1.67
2023-03-11T17:17:50.701Z,1.70
2023-03-11T17:20:19.983Z,1.60
2023-03-11T17:22:48.571Z,1.93
2023-03-11T17:25:15.511Z,2.03
2023-03-11T17:27:42.424Z,2.23
2023-03-11T17:30:12.046Z,2.40
2023-03-11T17:32:39.027Z,2.23
2023-03-11T17:35:06.737Z,2.20
2023-03-11T17:37:34.239Z,2.57
2023-03-11T17:40:01.620Z,2.57
2023-03-11T17:42:28.530Z,1.80
2023-03-11T17:44:57.041Z,1.73
2023-03-11T17:47:27.570Z,1.87
2023-03-11T17:49:54.611Z,2.30
2023-03-11T17:52:21.571Z,2.10
2023-03-11T17:54:48.639Z,1.80
2023-03-11T17:57:15.697Z,2.00
2023-03-11T17:59:42.707Z,1.73
2023-03-11T18:02:14.239Z,2.53
2023-03-11T18:04:43.362Z,2.50
2023-03-11T18:07:10.362Z,3.73
2023-03-11T18:09:37.325Z,4.60
2023-03-11T18:12:06.584Z,4.07
2023-03-11T18:14:33.703Z,3.80
2023-03-11T18:17:00.846Z,4.87
2023-03-11T18:19:27.770Z,3.50
2023-03-11T18:21:54.695Z,2.93
2023-03-11T18:24:21.617Z,2.60
2023-03-11T18:26:48.573Z,2.63
2023-03-11T18:29:15.705Z,2.63
2023-03-11T18:31:42.784Z,2.60
2023-03-11T18:34:13.381Z,2.27
2023-03-11T18:36:41.802Z,2.50
2023-03-11T18:39:13.866Z,2.40
2023-03-11T18:41:42.216Z,2.70
2023-03-11T18:44:09.419Z,3.30
2023-03-11T18:46:36.419Z,4.07
2023-03-11T18:49:05.286Z,6.00
2023-03-11T18:51:33.241Z,5.80
2023-03-11T18:54:01.097Z,4.77
2023-03-11T18:56:31.008Z,5.97
2023-03-11T18:58:59.471Z,5.43
2023-03-11T19:01:27.585Z,5.77
2023-03-11T19:03:59.902Z,5.53
2023-03-11T19:06:28.621Z,5.37
2023-03-11T19:08:56.968Z,5.50
2023-03-11T19:11:25.152Z,6.13
2023-03-11T19:13:52.915Z,6.00
2023-03-11T19:16:24.095Z,6.27
2023-03-11T19:18:53.803Z,6.37
2023-03-11T19:21:21.649Z,6.13
2023-03-11T19:23:51.775Z,5.80
2023-03-11T19:26:18.970Z,6.13
2023-03-11T19:28:46.029Z,5.80
2023-03-11T19:31:13.171Z,6.03
2023-03-11T19:33:40.306Z,6.07
2023-03-11T19:36:08.459Z,6.10
2023-03-11T19:38:36.040Z,6.07
2023-03-11T19:41:18.529Z,5.77
2023-03-11T19:43:47.517Z,5.80
2023-03-11T19:46:18.782Z,5.57
2023-03-11T19:48:45.798Z,5.93
2023-03-11T19:51:13.128Z,6.10
2023-03-11T19:53:41.685Z,5.90
2023-03-11T19:56:09.869Z,5.93
2023-03-11T19:58:37.150Z,6.40
2023-03-11T20:01:05.051Z,6.90
2023-03-11T20:03:32.057Z,5.77
2023-03-11T20:06:06.537Z,6.67
2023-03-11T20:08:37.759Z,5.90
2023-03-11T20:11:06.490Z,6.00
2023-03-11T20:13:36.215Z,5.50
2023-03-11T20:16:18.590Z,4.90
2023-03-11T20:18:50.134Z,5.27
2023-03-11T20:21:17.420Z,5.20
2023-03-11T20:23:44.492Z,5.27
2023-03-11T20:26:14.673Z,4.73
2023-03-11T20:28:41.907Z,5.13
2023-03-11T20:31:19.876Z,5.87
2023-03-11T20:33:49.241Z,5.57
2023-03-11T20:36:23.802Z,5.13
2023-03-11T20:38:53.543Z,5.00
2023-03-11T20:41:23.161Z,4.90
2023-03-11T20:43:55.734Z,5.17
2023-03-11T20:46:23.601Z,6.10
2023-03-11T20:48:50.681Z,5.07
2023-03-11T20:51:20.627Z,4.77
2023-03-11T20:53:48.987Z,4.50
2023-03-11T20:56:19.908Z,4.63
2023-03-11T20:58:48.750Z,4.40
2023-03-11T21:01:27.115Z,4.50
2023-03-11T21:03:57.634Z,5.27
2023-03-11T21:06:33.912Z,4.30
2023-03-11T21:09:05.271Z,4.33
2023-03-11T21:11:33.303Z,3.70
2023-03-11T21:14:00.428Z,4.40
2023-03-11T21:16:28.161Z,4.50
2023-03-11T21:18:55.788Z,4.23
2023-03-11T21:21:23.144Z,4.50
2023-03-11T21:23:50.618Z,3.90
2023-03-11T21:26:18.649Z,4.07
2023-03-11T21:28:46.785Z,4.23
2023-03-11T21:31:18.674Z,3.80
2023-03-11T21:33:46.902Z,4.10
2023-03-11T21:36:16.466Z,4.43
2023-03-11T21:38:43.892Z,4.07
2023-03-11T21:41:25.137Z,4.63
2023-03-11T21:43:54.183Z,5.00
2023-03-11T21:46:28.699Z,5.33
2023-03-11T21:48:56.038Z,4.23
2023-03-11T21:51:24.815Z,4.40
2023-03-11T21:53:51.935Z,3.93
2023-03-11T21:56:19.026Z,4.10
2023-03-11T21:58:46.055Z,4.17
2023-03-11T22:01:13.161Z,4.83
2023-03-11T22:03:41.045Z,4.70
2023-03-11T22:06:11.944Z,4.90
2023-03-11T22:08:39.535Z,5.30
2023-03-11T22:11:17.477Z,4.13
2023-03-11T22:13:50.961Z,4.50
2023-03-11T22:16:20.131Z,4.57
2023-03-11T22:18:48.160Z,4.40
2023-03-11T22:21:16.471Z,4.33
2023-03-11T22:23:44.874Z,4.47
2023-03-11T22:26:12.026Z,5.70
2023-03-11T22:28:39.102Z,4.87
2023-03-11T22:31:12.240Z,5.07
2023-03-11T22:33:39.840Z,5.23
2023-03-11T22:36:09.111Z,5.00
2023-03-11T22:38:37.069Z,5.17
2023-03-11T22:41:07.570Z,5.70
2023-03-11T22:43:36.076Z,5.23
2023-03-11T22:46:05.075Z,4.93
2023-03-11T22:48:33.320Z,5.20
2023-03-11T22:51:01.137Z,5.13
2023-03-11T22:53:28.148Z,5.17
2023-03-11T22:55:55.098Z,5.07
2023-03-11T22:58:22.155Z,4.43
2023-03-11T23:00:49.275Z,4.90
2023-03-11T23:03:16.836Z,4.97
2023-03-11T23:05:45.806Z,4.67
2023-03-11T23:08:16.372Z,4.47
2023-03-11T23:10:46.568Z,5.10
2023-03-11T23:13:14.603Z,4.60
2023-03-11T23:15:46.611Z,5.10
2023-03-11T23:18:16.199Z,4.23
2023-03-11T23:20:45.006Z,4.83
2023-03-11T23:23:13.593Z,4.00
2023-03-11T23:25:41.614Z,4.53
2023-03-11T23:28:08.971Z,4.47
2023-03-11T23:30:36.571Z,4.40
2023-03-11T23:33:03.953Z,4.43
2023-03-11T23:35:32.331Z,4.20
2023-03-11T23:38:00.068Z,4.23
2023-03-11T23:40:27.170Z,4.13
2023-03-11T23:42:54.195Z,4.40
2023-03-11T23:45:21.278Z,4.17
2023-03-11T23:47:48.248Z,4.10
2023-03-11T23:50:15.738Z,3.30
2023-03-11T23:52:42.832Z,3.47
2023-03-11T23:55:10.547Z,3.87
2023-03-11T23:57:37.786Z,3.40
